Time;durP1;ratioP1;P1;durP2;ratioP2;P2;SDS_P1;SDS_P2;PMS_P1;PMS_P2;Temp;Humidity;BMP_temperature;BMP_pressure;BME280_temperature;BME280_humidity;BME280_pressure;Samples;Min_cycle;Max_cycle;Signal;HPM_P1;HPM_P2
2021/01/18 00:00:49;;;;;;;10.20;6.10;;;-9.10;96.30;;;;;;5013296;28;20230;-79
2021/01/18 00:03:15;;;;;;;8.73;6.10;;;-9.10;96.30;;;;;;5014219;28;20272;-79
2021/01/18 00:05:40;;;;;;;10.30;6.50;;;-9.20;96.30;;;;;;5013783;28;20574;-79
2021/01/18 00:08:06;;;;;;;9.40;6.00;;;-9.20;96.30;;;;;;5014194;28;20177;-78
2021/01/18 00:10:31;;;;;;;10.30;6.83;;;-9.20;96.30;;;;;;5012917;28;20180;-78
2021/01/18 00:12:58;;;;;;;14.60;7.60;;;-9.30;96.30;;;;;;5001932;28;20276;-78
2021/01/18 00:15:24;;;;;;;11.43;5.90;;;-9.30;96.30;;;;;;4994191;28;20185;-78
2021/01/18 00:17:51;;;;;;;11.60;7.00;;;-9.20;96.30;;;;;;4993102;28;20424;-79
2021/01/18 00:20:18;;;;;;;8.33;5.40;;;-9.20;96.30;;;;;;4994334;28;20413;-79
2021/01/18 00:22:44;;;;;;;8.43;5.50;;;-9.20;96.30;;;;;;4994119;28;20789;-78
2021/01/18 00:25:29;;;;;;;8.20;5.60;;;-9.10;96.30;;;;;;4993680;28;20461;-78
2021/01/18 00:27:54;;;;;;;12.57;6.30;;;-9.10;96.30;;;;;;4994297;28;20445;-78
2021/01/18 00:30:23;;;;;;;11.73;5.47;;;-9.00;96.30;;;;;;4994282;28;20447;-79
2021/01/18 00:32:50;;;;;;;11.30;5.43;;;-9.00;96.30;;;;;;4993774;28;20216;-79
2021/01/18 00:35:17;;;;;;;10.47;6.20;;;-8.90;96.30;;;;;;4993110;28;20978;-78
2021/01/18 00:37:45;;;;;;;8.73;5.97;;;-8.90;96.30;;;;;;4992839;28;20429;-78
2021/01/18 00:40:13;;;;;;;12.50;4.93;;;-8.90;96.30;;;;;;4992730;28;20409;-79
2021/01/18 00:42:40;;;;;;;9.00;5.40;;;-8.90;96.30;;;;;;4993949;28;20424;-78
2021/01/18 00:45:07;;;;;;;11.57;6.10;;;-9.00;96.30;;;;;;4992191;28;20456;-79
2021/01/18 00:47:37;;;;;;;11.03;5.93;;;-8.90;96.30;;;;;;4992569;28;20420;-78
2021/01/18 00:50:03;;;;;;;9.67;4.63;;;-8.80;96.30;;;;;;4993943;28;20440;-79
2021/01/18 00:52:29;;;;;;;11.10;6.17;;;-8.80;96.30;;;;;;4993692;28;20492;-78
2021/01/18 00:54:54;;;;;;;11.63;7.00;;;-8.70;96.30;;;;;;4993200;28;20198;-79
2021/01/18 00:57:19;;;;;;;10.40;6.60;;;-8.70;96.30;;;;;;4992119;28;20752;-78
2021/01/18 00:59:45;;;;;;;8.07;5.77;;;-8.70;96.30;;;;;;4993654;28;20178;-79
2021/01/18 04:26:44;;;;;;;16.00;11.17;;;-4.30;96.30;;;;;;5844874;23;20816;-80
2021/01/18 04:29:09;;;;;;;17.47;10.07;;;-4.00;96.30;;;;;;4975879;28;20456;-79
2021/01/18 04:31:41;;;;;;;17.63;11.03;;;-3.90;96.30;;;;;;4999597;28;20637;-79
2021/01/18 04:34:08;;;;;;;19.67;12.90;;;-3.80;96.30;;;;;;4979743;28;20597;-80
2021/01/18 04:36:38;;;;;;;18.77;12.43;;;-3.70;96.30;;;;;;4979295;28;20515;-79
2021/01/18 04:39:08;;;;;;;19.13;11.27;;;-3.70;96.30;;;;;;4979672;28;20425;-79
2021/01/18 04:41:40;;;;;;;19.73;12.57;;;-3.70;96.30;;;;;;4978664;28;20424;-79
2021/01/18 04:44:08;;;;;;;16.13;10.30;;;-3.50;96.30;;;;;;4997986;28;20428;-80
2021/01/18 04:46:40;;;;;;;17.27;11.90;;;-3.50;96.30;;;;;;5007248;28;20429;-80
2021/01/18 04:49:08;;;;;;;19.87;12.57;;;-3.40;96.30;;;;;;5002400;28;20405;-79
2021/01/18 04:51:51;;;;;;;20.33;12.20;;;-3.40;96.30;;;;;;4993911;28;20420;-79
2021/01/18 04:54:19;;;;;;;18.47;10.77;;;-3.30;96.30;;;;;;4976537;28;20425;-79
2021/01/18 04:57:03;;;;;;;17.70;11.23;;;-3.20;96.30;;;;;;4976177;28;20459;-79
2021/01/18 04:59:38;;;;;;;18.10;12.37;;;-3.20;96.30;;;;;;4993754;28;20405;-79
2021/01/18 05:02:18;;;;;;;15.13;10.10;;;-3.20;96.30;;;;;;4976283;28;20487;-80
2021/01/18 05:04:48;;;;;;;13.23;10.07;;;-3.20;96.30;;;;;;4993450;28;20785;-79
2021/01/18 05:07:42;;;;;;;15.47;11.20;;;-3.20;96.30;;;;;;4975824;28;20463;-79
2021/01/18 05:10:09;;;;;;;14.47;11.03;;;-3.10;96.30;;;;;;4951431;28;20427;-79
2021/01/18 05:12:37;;;;;;;17.90;11.67;;;-3.00;96.30;;;;;;4984235;28;20536;-79
2021/01/18 05:15:10;;;;;;;15.87;10.60;;;-3.00;96.30;;;;;;4974757;28;20421;-79
2021/01/18 05:17:43;;;;;;;16.57;11.83;;;-2.90;96.30;;;;;;4974811;28;20527;-79
2021/01/18 05:20:19;;;;;;;15.83;11.30;;;-2.90;96.30;;;;;;4981332;28;20422;-79
2021/01/18 05:22:52;;;;;;;15.83;10.33;;;-2.80;96.30;;;;;;4991019;28;20420;-79
2021/01/18 05:25:19;;;;;;;16.97;11.10;;;-2.80;96.30;;;;;;4992897;28;20393;-79
2021/01/18 05:28:07;;;;;;;16.60;10.80;;;-2.80;96.30;;;;;;4992264;28;20452;-80
2021/01/18 05:30:43;;;;;;;15.37;9.90;;;-2.70;96.30;;;;;;4975324;28;20875;-79
2021/01/18 05:33:10;;;;;;;16.70;11.37;;;-2.70;96.30;;;;;;4992654;28;20864;-79
2021/01/18 05:35:38;;;;;;;20.37;12.40;;;-2.70;96.30;;;;;;4992354;28;20428;-79
2021/01/18 05:38:11;;;;;;;16.70;11.23;;;-2.70;96.30;;;;;;4992521;28;20436;-79
2021/01/18 05:40:46;;;;;;;17.33;11.70;;;-2.70;96.30;;;;;;4974908;28;20432;-79
2021/01/18 05:43:14;;;;;;;17.20;10.57;;;-2.60;96.30;;;;;;4992187;28;20443;-79
2021/01/18 05:45:47;;;;;;;17.47;11.60;;;-2.60;96.30;;;;;;4975116;28;20432;-79
2021/01/18 05:48:24;;;;;;;17.97;9.80;;;-2.50;96.30;;;;;;4974809;28;20457;-79
2021/01/18 05:50:59;;;;;;;15.17;10.63;;;-2.40;96.30;;;;;;4974880;28;20490;-80
2021/01/18 05:53:31;;;;;;;16.83;11.60;;;-2.40;96.30;;;;;;4992330;28;20968;-79
2021/01/18 05:56:14;;;;;;;15.20;10.17;;;-2.40;96.30;;;;;;4974780;28;20412;-79
2021/01/18 05:58:40;;;;;;;14.93;10.10;;;-2.30;96.30;;;;;;4992107;28;20428;-79
2021/01/18 06:01:05;;;;;;;17.70;11.13;;;-2.30;96.30;;;;;;4974050;28;20416;-79
2021/01/18 06:03:32;;;;;;;15.90;10.30;;;-2.30;96.30;;;;;;4992645;28;20193;-79
2021/01/18 06:05:58;;;;;;;20.10;12.07;;;-2.30;96.30;;;;;;4991630;28;20217;-79
2021/01/18 06:08:25;;;;;;;16.47;10.63;;;-2.20;96.30;;;;;;4991858;28;21027;-79
2021/01/18 06:10:53;;;;;;;15.57;10.10;;;-2.20;96.30;;;;;;4992375;28;20412;-80
2021/01/18 06:13:32;;;;;;;13.50;10.50;;;-2.20;96.30;;;;;;4958203;28;20557;-79
2021/01/18 06:16:03;;;;;;;15.60;10.20;;;-2.20;96.30;;;;;;4978825;28;20417;-79
2021/01/18 06:18:30;;;;;;;16.37;10.97;;;-2.10;96.30;;;;;;4991915;28;20428;-80
2021/01/18 06:21:00;;;;;;;16.87;10.90;;;-2.10;96.30;;;;;;4992159;28;20884;-79
2021/01/18 06:23:26;;;;;;;17.90;10.40;;;-2.10;96.30;;;;;;4992920;28;20460;-80
2021/01/18 06:25:53;;;;;;;15.70;11.00;;;-2.10;96.30;;;;;;4961837;28;20428;-80
2021/01/18 06:28:35;;;;;;;16.10;9.97;;;-2.10;96.30;;;;;;4974449;28;20260;-80
2021/01/18 06:31:03;;;;;;;19.60;12.17;;;-2.00;96.30;;;;;;4968614;28;20438;-80
2021/01/18 06:33:38;;;;;;;13.50;9.40;;;-2.00;96.30;;;;;;4957111;29;20490;-80
2021/01/18 06:36:17;;;;;;;14.93;9.97;;;-2.00;96.30;;;;;;4956869;29;20410;-79
2021/01/18 06:38:58;;;;;;;15.40;10.70;;;-2.00;96.30;;;;;;4957522;29;20489;-79
2021/01/18 06:41:35;;;;;;;16.13;9.43;;;-1.90;96.30;;;;;;4940273;29;20461;-80
2021/01/18 06:44:02;;;;;;;15.37;10.70;;;-1.90;96.30;;;;;;4957897;28;20437;-79
2021/01/18 06:46:37;;;;;;;16.10;10.60;;;-1.90;96.30;;;;;;4975947;28;20416;-79
2021/01/18 06:49:04;;;;;;;14.03;9.60;;;-1.90;96.30;;;;;;4977974;28;20401;-80
2021/01/18 06:51:30;;;;;;;13.60;10.30;;;-1.80;96.30;;;;;;4959856;28;20440;-80
2021/01/18 06:53:57;;;;;;;15.50;10.73;;;-1.80;96.30;;;;;;4959106;28;20527;-80
2021/01/18 06:56:23;;;;;;;13.47;9.63;;;-1.80;96.30;;;;;;4976087;28;20500;-80
2021/01/18 06:58:51;;;;;;;17.40;11.10;;;-1.80;96.30;;;;;;4976542;28;20814;-80
2021/01/18 07:01:30;;;;;;;16.00;10.40;;;-1.80;96.30;;;;;;4977011;28;20182;-80
2021/01/18 07:04:03;;;;;;;16.93;11.33;;;-1.80;96.30;;;;;;4976971;28;20737;-80
2021/01/18 07:06:37;;;;;;;13.00;10.37;;;-1.80;96.30;;;;;;4961053;28;20465;-80
2021/01/18 07:09:09;;;;;;;14.60;9.07;;;-1.70;96.30;;;;;;4960586;28;20941;-80
2021/01/18 07:11:35;;;;;;;14.67;8.00;;;-1.70;96.30;;;;;;4975584;28;20497;-81
2021/01/18 07:14:18;;;;;;;12.53;9.40;;;-1.70;96.30;;;;;;4956938;28;20475;-81
2021/01/18 07:16:48;;;;;;;13.77;9.33;;;-1.60;96.30;;;;;;4939117;29;20942;-79
2021/01/18 07:19:23;;;;;;;13.73;9.40;;;-1.60;96.30;;;;;;4966841;28;20418;-81
2021/01/18 07:22:04;;;;;;;12.80;9.00;;;-1.60;96.30;;;;;;4975792;28;20417;-79
2021/01/18 07:24:34;;;;;;;11.20;8.60;;;-1.50;96.30;;;;;;4953714;29;20789;-79
2021/01/18 07:27:07;;;;;;;9.47;6.93;;;-1.50;96.30;;;;;;4964491;28;20470;-78
2021/01/18 07:29:33;;;;;;;11.37;8.77;;;-1.40;96.30;;;;;;4965591;28;20419;-78
2021/01/18 07:31:59;;;;;;;12.23;8.23;;;-1.40;96.30;;;;;;4959537;28;20537;-77
2021/01/18 07:34:27;;;;;;;11.53;8.50;;;-1.30;96.30;;;;;;4952116;28;20179;-78
2021/01/18 07:37:05;;;;;;;11.60;8.30;;;-1.30;96.30;;;;;;4955555;29;20470;-78
2021/01/18 07:39:34;;;;;;;11.00;8.47;;;-1.30;96.30;;;;;;4956147;29;20411;-77
2021/01/18 07:42:01;;;;;;;11.30;7.77;;;-1.20;96.30;;;;;;4966695;28;20445;-77
2021/01/18 07:44:37;;;;;;;10.27;7.80;;;-1.20;96.30;;;;;;4951876;28;20433;-77
2021/01/18 07:47:13;;;;;;;9.40;7.60;;;-1.20;96.30;;;;;;4942663;29;20450;-77
2021/01/18 07:49:46;;;;;;;13.37;8.27;;;-1.10;96.30;;;;;;4956684;28;20426;-77
2021/01/18 07:52:17;;;;;;;13.33;8.47;;;-1.00;96.30;;;;;;4975115;28;20449;-77
2021/01/18 07:54:47;;;;;;;10.50;7.37;;;-1.00;96.30;;;;;;4972810;28;20792;-77
2021/01/18 07:57:35;;;;;;;10.50;7.50;;;-0.90;96.30;;;;;;4997068;28;20425;-77
2021/01/18 08:00:19;;;;;;;10.40;7.47;;;-0.90;96.30;;;;;;4999323;28;20401;-78
2021/01/18 08:02:49;;;;;;;10.97;7.83;;;-1.00;96.30;;;;;;4972709;28;20437;-78
2021/01/18 08:05:21;;;;;;;12.00;8.50;;;-0.90;96.30;;;;;;4965437;28;20485;-78
2021/01/18 08:08:03;;;;;;;14.63;9.13;;;-0.90;96.30;;;;;;4964744;28;20849;-78
2021/01/18 08:10:55;;;;;;;11.23;8.43;;;-0.80;96.30;;;;;;4988861;28;20416;-78
2021/01/18 08:13:33;;;;;;;10.87;7.60;;;-0.80;96.30;;;;;;4945988;28;20462;-78
2021/01/18 08:16:11;;;;;;;13.07;7.90;;;-0.70;96.30;;;;;;4964167;28;20417;-78
2021/01/18 08:19:00;;;;;;;10.30;7.63;;;-0.70;96.30;;;;;;4984530;28;20449;-78
2021/01/18 08:21:36;;;;;;;13.63;7.77;;;-0.70;96.30;;;;;;4964137;28;21065;-78
2021/01/18 08:24:06;;;;;;;12.03;7.30;;;-0.60;96.30;;;;;;4972109;28;20408;-78
2021/01/18 08:27:02;;;;;;;12.57;8.20;;;-0.60;96.30;;;;;;4983378;28;20418;-78
2021/01/18 08:29:52;;;;;;;14.40;8.03;;;-0.50;96.30;;;;;;4966000;28;20432;-78
2021/01/18 08:32:21;;;;;;;13.23;6.70;;;-0.40;96.30;;;;;;4987472;28;20452;-78
2021/01/18 08:34:55;;;;;;;10.50;6.83;;;-0.40;96.30;;;;;;4986016;28;20421;-78
2021/01/18 08:37:21;;;;;;;13.60;7.23;;;-0.30;96.30;;;;;;4966712;28;20517;-78
2021/01/18 08:40:00;;;;;;;13.67;7.00;;;-0.30;96.30;;;;;;4985200;28;20429;-78
2021/01/18 08:42:30;;;;;;;11.23;7.47;;;-0.20;96.30;;;;;;4967006;28;20468;-78
2021/01/18 08:44:57;;;;;;;10.80;5.87;;;-0.20;96.30;;;;;;4968611;28;20434;-78
2021/01/18 08:47:51;;;;;;;9.80;5.43;;;-0.20;96.30;;;;;;4955455;28;20522;-78
2021/01/18 08:50:23;;;;;;;7.40;4.83;;;-0.20;96.30;;;;;;4976349;28;20446;-78
2021/01/18 08:53:00;;;;;;;7.10;5.07;;;-0.20;96.30;;;;;;4985393;28;20445;-77
2021/01/18 08:55:29;;;;;;;13.00;5.00;;;-0.30;96.30;;;;;;5013333;28;20442;-77
2021/01/18 08:58:04;;;;;;;11.37;6.17;;;-0.30;96.30;;;;;;4982543;28;20477;-78
2021/01/18 09:00:43;;;;;;;10.73;4.93;;;-0.20;96.30;;;;;;4962652;29;20549;-77
2021/01/18 09:03:17;;;;;;;11.17;4.30;;;-0.30;96.30;;;;;;4974589;28;20445;-77
2021/01/18 09:05:43;;;;;;;10.50;4.50;;;-0.20;96.30;;;;;;4958139;29;20469;-78
2021/01/18 09:08:09;;;;;;;9.07;4.57;;;-0.20;96.30;;;;;;4954930;28;20438;-78
2021/01/18 09:10:35;;;;;;;8.37;4.77;;;-0.10;96.30;;;;;;4957217;28;20763;-78
2021/01/18 09:13:03;;;;;;;8.17;3.77;;;-0.10;96.30;;;;;;4959272;28;20226;-79
2021/01/18 09:15:29;;;;;;;10.70;5.37;;;0.00;96.30;;;;;;4954175;29;20631;-77
2021/01/18 09:17:55;;;;;;;10.50;5.17;;;0.00;96.30;;;;;;4937335;29;20440;-78
2021/01/18 09:20:21;;;;;;;21.33;8.13;;;0.00;96.30;;;;;;4942224;28;20771;-78
2021/01/18 09:22:46;;;;;;;9.17;5.03;;;0.00;96.30;;;;;;4969515;28;20721;-78
2021/01/18 09:25:14;;;;;;;10.27;4.07;;;0.00;96.30;;;;;;4958136;28;20430;-78
2021/01/18 09:27:40;;;;;;;11.00;5.27;;;0.10;96.30;;;;;;4945070;29;20215;-78
2021/01/18 09:30:17;;;;;;;12.60;5.10;;;0.10;96.30;;;;;;4966268;28;20773;-77
2021/01/18 09:33:00;;;;;;;12.30;6.10;;;0.30;96.30;;;;;;4967908;28;20193;-78
2021/01/18 09:35:27;;;;;;;17.10;5.43;;;0.30;96.30;;;;;;4983153;28;20412;-79
2021/01/18 09:37:54;;;;;;;10.07;4.20;;;0.40;96.30;;;;;;4984052;28;20524;-78
2021/01/18 09:40:19;;;;;;;17.57;4.90;;;0.60;96.30;;;;;;4992864;28;20900;-78
2021/01/18 09:42:48;;;;;;;17.80;6.10;;;0.80;96.30;;;;;;4992853;28;20421;-78
2021/01/18 09:45:14;;;;;;;10.67;5.90;;;0.90;96.30;;;;;;4987261;28;20182;-78
2021/01/18 09:47:41;;;;;;;12.53;5.67;;;0.80;96.30;;;;;;4964019;28;20497;-79
2021/01/18 09:50:11;;;;;;;11.80;5.70;;;0.90;96.30;;;;;;4954294;28;20422;-78
2021/01/18 09:53:03;;;;;;;13.17;6.03;;;0.90;96.30;;;;;;4952783;29;20508;-78
2021/01/18 09:55:36;;;;;;;12.07;5.90;;;0.90;96.30;;;;;;4951116;29;20422;-78
2021/01/18 09:58:13;;;;;;;16.30;6.90;;;0.90;96.30;;;;;;4954030;29;20433;-78
2021/01/18 10:00:42;;;;;;;11.33;5.70;;;1.00;96.30;;;;;;4954017;29;20409;-77
2021/01/18 10:03:08;;;;;;;15.43;7.63;;;0.90;96.30;;;;;;4953765;29;20443;-78
2021/01/18 10:05:39;;;;;;;14.80;6.77;;;0.90;96.30;;;;;;4955270;28;20478;-79
2021/01/18 10:08:11;;;;;;;14.73;7.67;;;1.00;96.30;;;;;;4957017;29;21004;-77
2021/01/18 10:10:41;;;;;;;17.20;8.00;;;0.90;96.30;;;;;;4957851;29;20406;-78
2021/01/18 10:13:13;;;;;;;13.80;7.40;;;1.00;96.30;;;;;;4972458;28;20456;-78
2021/01/18 10:15:39;;;;;;;15.73;6.33;;;1.00;96.30;;;;;;4976095;28;20394;-78
2021/01/18 10:18:05;;;;;;;12.80;6.10;;;0.90;96.30;;;;;;4977067;28;20457;-78
2021/01/18 10:20:30;;;;;;;14.00;6.37;;;1.00;96.30;;;;;;4976933;28;20406;-78
2021/01/18 10:22:57;;;;;;;14.77;7.30;;;1.10;96.30;;;;;;4977086;28;20512;-77
2021/01/18 10:25:27;;;;;;;10.57;5.30;;;1.00;96.30;;;;;;4976512;28;20186;-78
2021/01/18 10:27:55;;;;;;;11.13;5.30;;;0.90;96.30;;;;;;4972770;28;20457;-78
2021/01/18 10:30:35;;;;;;;10.97;6.30;;;0.80;96.30;;;;;;4957468;29;20969;-78
2021/01/18 10:33:01;;;;;;;11.50;6.23;;;0.90;96.30;;;;;;4969114;28;20462;-76
2021/01/18 10:35:35;;;;;;;10.93;4.53;;;0.80;96.30;;;;;;4968203;28;20435;-78
2021/01/18 10:38:16;;;;;;;6.93;4.90;;;0.80;96.30;;;;;;4959726;28;20537;-77
2021/01/18 10:40:44;;;;;;;14.70;4.77;;;0.90;96.30;;;;;;4948003;29;20419;-77
2021/01/18 10:43:11;;;;;;;10.47;5.33;;;0.90;96.30;;;;;;4957397;29;20446;-77
2021/01/18 10:45:42;;;;;;;9.30;4.17;;;0.90;96.30;;;;;;4939555;29;20646;-77
2021/01/18 10:48:08;;;;;;;8.80;4.40;;;0.90;96.30;;;;;;4957076;29;20588;-77
2021/01/18 10:50:33;;;;;;;10.70;4.97;;;1.00;96.30;;;;;;4956821;29;20453;-78
2021/01/18 10:53:06;;;;;;;14.90;5.17;;;1.10;96.30;;;;;;4956638;29;20497;-77
2021/01/18 10:55:32;;;;;;;9.43;4.80;;;0.90;96.30;;;;;;4962844;28;20178;-77
2021/01/18 10:57:57;;;;;;;9.07;4.27;;;0.90;96.30;;;;;;4957109;28;20434;-77
2021/01/18 11:00:27;;;;;;;7.60;4.03;;;1.00;96.30;;;;;;4941683;29;20179;-76
2021/01/18 11:02:53;;;;;;;12.70;4.60;;;1.00;96.30;;;;;;4968830;28;20185;-76
2021/01/18 11:05:26;;;;;;;10.57;4.40;;;1.10;96.30;;;;;;4961494;28;20429;-76
2021/01/18 11:07:51;;;;;;;11.93;4.17;;;1.10;96.30;;;;;;4963626;28;20537;-76
2021/01/18 11:10:22;;;;;;;7.80;3.60;;;1.10;96.30;;;;;;4957142;28;20582;-76
2021/01/18 11:12:56;;;;;;;10.40;3.90;;;1.20;96.30;;;;;;4947798;28;20210;-76
2021/01/18 11:15:21;;;;;;;13.60;3.60;;;1.30;96.30;;;;;;4956201;28;20411;-77
2021/01/18 11:17:51;;;;;;;8.90;4.13;;;1.20;96.30;;;;;;4964025;28;20448;-77
2021/01/18 11:20:23;;;;;;;13.53;3.90;;;1.30;96.30;;;;;;4959088;28;20180;-77
2021/01/18 11:22:49;;;;;;;12.30;5.30;;;1.30;96.30;;;;;;4951868;29;20461;-77
2021/01/18 11:25:14;;;;;;;10.53;3.33;;;1.20;96.30;;;;;;4938936;29;20950;-78
2021/01/18 11:27:40;;;;;;;8.43;2.90;;;1.40;96.30;;;;;;4973817;28;20210;-77
2021/01/18 11:30:06;;;;;;;14.70;3.70;;;1.40;96.30;;;;;;4975583;28;20188;-77
2021/01/18 11:32:31;;;;;;;17.30;4.67;;;1.40;96.30;;;;;;4975637;28;20213;-77
2021/01/18 11:34:57;;;;;;;7.87;3.00;;;1.50;96.30;;;;;;4975182;28;20767;-77
2021/01/18 11:37:22;;;;;;;8.00;3.20;;;1.50;96.30;;;;;;4975684;28;20202;-77
2021/01/18 11:39:48;;;;;;;7.50;3.30;;;1.50;96.30;;;;;;4953514;28;20241;-77
2021/01/18 11:42:13;;;;;;;11.47;3.83;;;1.60;96.30;;;;;;4948225;29;20706;-77
2021/01/18 11:44:39;;;;;;;10.30;3.60;;;1.70;96.30;;;;;;4938918;29;20179;-79
2021/01/18 11:47:05;;;;;;;9.70;3.40;;;1.60;96.30;;;;;;4938303;29;20213;-78
2021/01/18 11:49:30;;;;;;;4.87;2.50;;;1.60;96.30;;;;;;4956147;29;20411;-78
2021/01/18 11:51:57;;;;;;;9.67;3.57;;;1.50;96.30;;;;;;4955635;29;20183;-78
2021/01/18 11:54:23;;;;;;;8.07;4.10;;;1.50;96.30;;;;;;4938353;29;20630;-78
2021/01/18 11:56:49;;;;;;;13.07;3.70;;;1.60;96.30;;;;;;4938277;29;20453;-78
2021/01/18 11:59:14;;;;;;;8.33;3.77;;;1.40;96.30;;;;;;4938705;29;20423;-78
2021/01/18 12:01:47;;;;;;;8.40;3.37;;;1.60;96.30;;;;;;4973506;28;20229;-78
2021/01/18 12:04:12;;;;;;;7.90;3.23;;;1.30;96.30;;;;;;4957704;28;20179;-78
2021/01/18 12:06:39;;;;;;;7.60;2.80;;;1.50;96.30;;;;;;4957174;28;20831;-78
2021/01/18 12:09:07;;;;;;;11.97;2.70;;;1.70;96.30;;;;;;4952955;28;20252;-78
2021/01/18 12:11:39;;;;;;;9.80;2.97;;;1.50;96.30;;;;;;4957691;28;20420;-78
2021/01/18 12:14:06;;;;;;;5.70;3.13;;;1.50;96.30;;;;;;4974910;28;20830;-78
2021/01/18 12:16:32;;;;;;;12.40;3.00;;;1.50;96.30;;;;;;4966894;28;20452;-78
2021/01/18 12:18:57;;;;;;;4.23;3.00;;;1.40;96.30;;;;;;4945872;29;20505;-78
2021/01/18 12:21:23;;;;;;;10.80;2.90;;;1.40;96.30;;;;;;4955594;29;20258;-78
2021/01/18 12:23:49;;;;;;;5.90;2.63;;;1.30;96.30;;;;;;4955575;29;20229;-78
2021/01/18 12:26:16;;;;;;;6.40;3.60;;;1.30;96.30;;;;;;4968376;28;20202;-78
2021/01/18 12:28:41;;;;;;;5.07;2.67;;;1.40;96.30;;;;;;4974412;28;20233;-78
2021/01/18 12:31:07;;;;;;;12.33;3.30;;;1.30;96.30;;;;;;4953109;29;20411;-78
2021/01/18 12:33:32;;;;;;;6.43;2.83;;;1.20;96.30;;;;;;4955352;29;20602;-77
2021/01/18 12:35:58;;;;;;;6.80;3.00;;;1.20;96.30;;;;;;4954682;29;20300;-77
2021/01/18 12:38:23;;;;;;;6.63;3.00;;;1.20;96.30;;;;;;4955281;29;20195;-77
2021/01/18 12:40:49;;;;;;;15.33;4.10;;;1.10;96.30;;;;;;4938052;29;20206;-77
2021/01/18 12:43:18;;;;;;;8.77;3.43;;;1.00;96.30;;;;;;4954918;29;20210;-78
2021/01/18 12:45:44;;;;;;;9.13;4.33;;;1.10;96.30;;;;;;4954548;29;20171;-77
2021/01/18 12:48:10;;;;;;;7.57;3.30;;;1.00;96.30;;;;;;4992083;28;20444;-77
2021/01/18 12:50:36;;;;;;;14.97;2.83;;;0.90;96.30;;;;;;4993769;28;20478;-77
2021/01/18 12:53:02;;;;;;;8.13;3.20;;;1.00;96.30;;;;;;4993703;28;20616;-77
2021/01/18 12:55:28;;;;;;;6.73;3.63;;;1.10;96.30;;;;;;4992857;28;20417;-77
2021/01/18 12:57:54;;;;;;;6.17;2.93;;;1.00;96.30;;;;;;4993406;28;20193;-77
2021/01/18 13:00:20;;;;;;;4.63;3.20;;;1.00;96.30;;;;;;4993312;28;20944;-77
2021/01/18 13:02:46;;;;;;;6.33;4.17;;;1.00;96.30;;;;;;4987278;28;20185;-77
2021/01/18 13:05:12;;;;;;;5.07;3.30;;;0.90;96.30;;;;;;4951303;29;20439;-77
2021/01/18 13:07:45;;;;;;;10.97;4.50;;;1.00;96.30;;;;;;4954256;29;20215;-77
2021/01/18 13:10:11;;;;;;;7.23;4.30;;;1.10;96.30;;;;;;4954738;29;20402;-77
2021/01/18 13:12:37;;;;;;;7.40;3.50;;;0.90;96.30;;;;;;4954509;29;20458;-77
2021/01/18 13:15:03;;;;;;;6.10;3.13;;;0.90;96.30;;;;;;4937019;29;20419;-77
2021/01/18 13:17:28;;;;;;;7.50;3.70;;;0.90;96.30;;;;;;4954390;29;20663;-77
2021/01/18 13:19:57;;;;;;;5.80;3.47;;;0.90;96.30;;;;;;4954254;29;20417;-76
2021/01/18 13:22:22;;;;;;;8.13;4.00;;;1.00;96.30;;;;;;4951906;28;20186;-76
2021/01/18 13:24:48;;;;;;;9.27;4.30;;;1.00;96.30;;;;;;4973747;28;20464;-76
2021/01/18 13:27:13;;;;;;;9.63;4.93;;;1.00;96.30;;;;;;4953721;29;20224;-77
2021/01/18 13:29:39;;;;;;;6.60;4.30;;;1.10;96.30;;;;;;4937221;29;20650;-76
2021/01/18 13:32:04;;;;;;;8.97;4.00;;;1.10;96.30;;;;;;4953135;28;20262;-77
2021/01/18 13:34:30;;;;;;;12.70;4.43;;;1.00;96.30;;;;;;4965385;28;20201;-77
2021/01/18 13:36:55;;;;;;;11.13;5.03;;;1.10;96.30;;;;;;4972827;28;20736;-77
2021/01/18 13:39:21;;;;;;;6.43;4.57;;;1.20;96.30;;;;;;4956056;28;20186;-77
2021/01/18 13:41:46;;;;;;;11.50;5.00;;;1.20;96.30;;;;;;4954013;28;20286;-77
2021/01/18 13:44:12;;;;;;;7.13;4.63;;;1.10;96.30;;;;;;4953983;29;20175;-77
2021/01/18 13:46:39;;;;;;;7.17;4.17;;;1.20;96.30;;;;;;4967081;28;20222;-76
2021/01/18 13:49:05;;;;;;;10.40;5.93;;;1.30;96.30;;;;;;4961670;28;20187;-76
2021/01/18 13:51:31;;;;;;;13.87;5.80;;;1.20;96.30;;;;;;4966526;28;20941;-76
2021/01/18 13:53:56;;;;;;;9.70;6.23;;;1.20;96.30;;;;;;4972852;28;20752;-77
2021/01/18 13:56:24;;;;;;;9.30;5.97;;;1.20;96.30;;;;;;4944336;29;20578;-77
2021/01/18 13:58:50;;;;;;;8.23;5.63;;;1.10;96.30;;;;;;4953925;29;20234;-77
2021/01/18 14:01:27;;;;;;;12.73;6.37;;;1.10;96.30;;;;;;4936792;29;20426;-78
2021/01/18 14:03:53;;;;;;;7.63;5.20;;;1.10;96.30;;;;;;4953956;29;20847;-78
2021/01/18 14:06:26;;;;;;;14.87;6.13;;;1.10;96.30;;;;;;4953408;29;20439;-77
2021/01/18 14:08:54;;;;;;;9.53;6.30;;;1.10;96.30;;;;;;4953963;29;20489;-78
2021/01/18 14:11:32;;;;;;;8.50;6.10;;;1.10;96.30;;;;;;4954108;29;20915;-78
2021/01/18 14:13:58;;;;;;;8.10;6.30;;;1.10;96.30;;;;;;4973091;28;20460;-78
2021/01/18 14:16:23;;;;;;;6.97;5.70;;;1.10;96.30;;;;;;4972563;28;20417;-77
2021/01/18 14:18:49;;;;;;;11.20;6.30;;;1.00;96.30;;;;;;4974395;28;20413;-77
2021/01/18 14:21:15;;;;;;;12.63;5.70;;;0.90;96.30;;;;;;4979631;28;20179;-77
2021/01/18 14:23:40;;;;;;;10.40;6.10;;;1.00;96.30;;;;;;4956687;29;20175;-77
2021/01/18 14:26:06;;;;;;;10.50;6.63;;;1.00;96.30;;;;;;4953657;29;20193;-78
2021/01/18 14:28:31;;;;;;;8.70;6.30;;;0.90;96.30;;;;;;4959785;28;20222;-77
2021/01/18 14:30:57;;;;;;;11.70;7.47;;;1.00;96.30;;;;;;4967398;28;20202;-76
2021/01/18 14:33:22;;;;;;;8.73;5.10;;;0.90;96.30;;;;;;4936110;29;20694;-77
2021/01/18 14:35:48;;;;;;;8.70;5.47;;;0.90;96.30;;;;;;4962135;28;20631;-77
2021/01/18 14:38:14;;;;;;;9.30;6.30;;;0.90;96.30;;;;;;4972865;28;20867;-77
2021/01/18 14:40:39;;;;;;;8.47;5.17;;;0.80;96.30;;;;;;4953407;28;20594;-77
2021/01/18 14:43:05;;;;;;;10.23;6.23;;;0.80;96.30;;;;;;4952236;28;20178;-77
2021/01/18 14:45:30;;;;;;;5.77;4.83;;;0.70;96.30;;;;;;4972212;28;20183;-77
2021/01/18 14:47:56;;;;;;;6.97;4.50;;;0.70;96.30;;;;;;4958513;28;20234;-78
2021/01/18 14:50:21;;;;;;;6.50;5.17;;;0.70;96.30;;;;;;4954801;28;20175;-77
2021/01/18 14:52:47;;;;;;;9.33;5.70;;;0.70;96.30;;;;;;4957631;28;20210;-77
2021/01/18 14:55:13;;;;;;;6.00;4.60;;;0.70;96.30;;;;;;4996859;23;20257;-75
2021/01/18 14:57:45;;;;;;;11.03;5.67;;;0.70;96.30;;;;;;4983438;28;20178;-75
2021/01/18 15:00:12;;;;;;;5.53;4.10;;;0.70;96.30;;;;;;4964656;28;20210;-74
2021/01/18 15:02:39;;;;;;;9.40;5.20;;;0.70;96.30;;;;;;4957121;28;20950;-77
2021/01/18 15:05:06;;;;;;;9.13;5.03;;;0.70;96.30;;;;;;4970155;28;20445;-75
2021/01/18 15:07:36;;;;;;;8.07;4.97;;;0.60;96.30;;;;;;4943369;28;21198;-75
2021/01/18 15:10:03;;;;;;;8.30;5.00;;;0.60;96.30;;;;;;4947508;29;20422;-75
2021/01/18 15:12:29;;;;;;;9.03;5.60;;;0.60;96.30;;;;;;4954490;28;20465;-75
2021/01/18 15:14:54;;;;;;;7.47;4.80;;;0.60;96.30;;;;;;4955954;29;20446;-76
2021/01/18 15:17:19;;;;;;;6.20;4.37;;;0.60;96.30;;;;;;4956208;29;20231;-76
2021/01/18 15:19:45;;;;;;;6.60;4.27;;;0.50;96.30;;;;;;4951433;29;20704;-76
2021/01/18 15:22:11;;;;;;;9.00;5.10;;;0.50;96.30;;;;;;4947981;28;20183;-75
2021/01/18 15:24:36;;;;;;;8.73;5.20;;;0.50;96.30;;;;;;4956046;29;20535;-76
2021/01/18 15:27:03;;;;;;;9.47;4.60;;;0.50;96.30;;;;;;4955121;29;20213;-76
2021/01/18 15:29:29;;;;;;;7.47;4.50;;;0.50;96.30;;;;;;4963947;28;20650;-75
2021/01/18 15:31:57;;;;;;;10.83;4.90;;;0.50;96.30;;;;;;4962234;28;20433;-75
2021/01/18 15:34:24;;;;;;;10.30;4.80;;;0.40;96.30;;;;;;4955547;29;20245;-76
2021/01/18 15:36:53;;;;;;;7.00;4.60;;;0.50;96.30;;;;;;4937400;29;20466;-76
2021/01/18 15:39:21;;;;;;;5.90;4.63;;;0.40;96.30;;;;;;4936964;29;20834;-76
2021/01/18 15:41:47;;;;;;;6.93;4.57;;;0.40;96.30;;;;;;4948294;29;20423;-75
2021/01/18 15:44:13;;;;;;;8.10;5.30;;;0.40;96.30;;;;;;4964626;28;20492;-76
2021/01/18 15:46:38;;;;;;;7.13;5.60;;;0.40;96.30;;;;;;4954636;28;21001;-75
2021/01/18 15:49:04;;;;;;;7.57;5.50;;;0.40;96.30;;;;;;4944791;29;20718;-76
2021/01/18 15:51:29;;;;;;;8.03;5.10;;;0.40;96.30;;;;;;4946637;29;20782;-79
2021/01/18 15:53:55;;;;;;;10.43;5.77;;;0.40;96.30;;;;;;4937308;29;20258;-78
2021/01/18 15:56:29;;;;;;;10.00;5.80;;;0.40;96.30;;;;;;4943249;29;20218;-79
2021/01/18 15:58:55;;;;;;;6.93;4.93;;;0.40;96.30;;;;;;4939752;29;20171;-79
2021/01/18 16:01:21;;;;;;;6.87;5.87;;;0.40;96.30;;;;;;4955354;29;20414;-79
2021/01/18 16:03:46;;;;;;;8.10;5.33;;;0.40;96.30;;;;;;4933785;29;20187;-79
2021/01/18 16:06:12;;;;;;;8.23;5.00;;;0.30;96.30;;;;;;4929489;29;20436;-79
2021/01/18 16:08:37;;;;;;;6.60;5.83;;;0.30;96.30;;;;;;4940471;29;20176;-79
2021/01/18 16:11:03;;;;;;;7.20;5.60;;;0.30;96.30;;;;;;4950167;28;20184;-79
2021/01/18 16:13:29;;;;;;;14.97;5.40;;;0.30;96.30;;;;;;4964198;28;20302;-80
2021/01/18 16:15:55;;;;;;;7.30;5.83;;;0.30;96.30;;;;;;4945120;29;20514;-79
2021/01/18 16:18:21;;;;;;;11.47;5.03;;;0.30;96.30;;;;;;4938281;29;20270;-79